createdAt,value
2023-04-10T00:00:33.329Z,9.13
2023-04-10T00:03:04.304Z,10.27
2023-04-10T00:05:31.856Z,8.57
2023-04-10T00:07:58.869Z,8.60
2023-04-10T00:10:26.754Z,10.23
2023-04-10T00:12:54.257Z,8.00
2023-04-10T00:15:21.457Z,8.32
2023-04-10T00:17:50.626Z,8.53
2023-04-10T00:20:17.824Z,8.60
2023-04-10T00:22:44.850Z,8.75
2023-04-10T00:25:12.031Z,9.33
2023-04-10T00:27:39.191Z,10.10
2023-04-10T00:30:08.777Z,9.43
2023-04-10T00:32:35.989Z,9.13
2023-04-10T00:35:03.635Z,8.53
2023-04-10T00:37:30.850Z,8.53
2023-04-10T00:39:57.858Z,9.33
2023-04-10T00:42:24.981Z,9.07
2023-04-10T00:44:52.256Z,6.83
2023-04-10T00:47:20.023Z,8.23
2023-04-10T00:49:47.292Z,8.87
2023-04-10T00:52:14.521Z,7.77
2023-04-10T00:54:41.630Z,8.23
2023-04-10T00:57:08.689Z,11.20
2023-04-10T00:59:36.217Z,8.93
2023-04-10T01:02:04.304Z,8.57
2023-04-10T01:04:32.888Z,8.17
2023-04-10T01:07:45.953Z,6.80
2023-04-10T01:10:16.320Z,10.00
2023-04-10T01:13:23.061Z,8.13
2023-04-10T01:16:05.805Z,9.53
2023-04-10T01:18:46.399Z,8.10
2023-04-10T01:21:16.447Z,11.00
2023-04-10T01:24:32.551Z,7.50
2023-04-10T01:27:26.358Z,8.67
2023-04-10T01:29:57.687Z,7.67
2023-04-10T01:32:25.440Z,7.90
2023-04-10T01:34:57.180Z,9.40
2023-04-10T01:37:30.421Z,7.93
2023-04-10T01:40:04.081Z,11.53
2023-04-10T01:42:35.801Z,9.50
2023-04-10T01:45:07.604Z,7.87
2023-04-10T01:47:35.350Z,8.33
2023-04-10T01:50:04.351Z,9.00
2023-04-10T01:52:32.895Z,7.83
2023-04-10T01:55:02.693Z,8.23
2023-04-10T01:57:31.913Z,7.73
2023-04-10T02:00:07.208Z,7.67
2023-04-10T02:02:35.113Z,8.10
2023-04-10T02:05:02.306Z,8.67
2023-04-10T02:08:14.489Z,8.80
2023-04-10T02:11:19.216Z,9.43
2023-04-10T02:13:49.576Z,9.63
2023-04-10T02:16:22.050Z,7.20
2023-04-10T02:18:51.832Z,8.67
2023-04-10T02:21:19.062Z,8.60
2023-04-10T02:23:46.483Z,8.70
2023-04-10T02:26:13.512Z,10.73
2023-04-10T02:28:40.660Z,9.40
2023-04-10T02:31:07.944Z,9.70
2023-04-10T02:33:35.320Z,10.30
2023-04-10T02:36:02.613Z,8.70
2023-04-10T02:38:29.740Z,11.10
2023-04-10T02:40:56.726Z,9.63
2023-04-10T02:43:23.829Z,9.00
2023-04-10T02:45:51.401Z,8.80
2023-04-10T02:48:18.534Z,11.07
2023-04-10T02:50:47.440Z,9.27
2023-04-10T02:53:16.511Z,12.63
2023-04-10T02:55:43.699Z,9.60
2023-04-10T02:58:13.836Z,9.33
2023-04-10T03:00:47.545Z,9.20
2023-04-10T03:03:14.913Z,10.13
2023-04-10T03:05:42.545Z,8.20
2023-04-10T03:08:09.576Z,11.17
2023-04-10T03:10:36.869Z,9.67
2023-04-10T03:13:04.026Z,8.93
2023-04-10T03:15:31.411Z,11.03
2023-04-10T03:17:58.562Z,11.43
2023-04-10T03:20:25.644Z,9.30
2023-04-10T03:22:52.813Z,10.67
2023-04-10T03:25:19.889Z,10.47
2023-04-10T03:27:47.201Z,9.57
2023-04-10T03:30:14.277Z,11.13
2023-04-10T03:32:43.209Z,9.43
2023-04-10T03:35:11.070Z,11.80
2023-04-10T03:37:38.120Z,11.97
2023-04-10T03:40:10.498Z,10.53
2023-04-10T03:42:37.581Z,10.13
2023-04-10T03:45:06.774Z,9.67
2023-04-10T03:47:34.705Z,11.03
2023-04-10T03:50:02.390Z,10.10
2023-04-10T03:52:29.484Z,11.77
2023-04-10T03:54:56.575Z,11.17
2023-04-10T03:57:23.723Z,10.20
2023-04-10T03:59:51.790Z,12.40
2023-04-10T04:02:18.939Z,9.77
2023-04-10T04:04:46.260Z,11.77
2023-04-10T04:07:13.945Z,10.23
2023-04-10T04:09:44.173Z,11.10
2023-04-10T04:12:11.413Z,11.40
2023-04-10T04:14:38.592Z,8.77
2023-04-10T04:17:05.946Z,10.17
2023-04-10T04:19:33.051Z,9.87
2023-04-10T04:22:00.594Z,10.70
2023-04-10T04:24:27.879Z,11.37
2023-04-10T04:26:55.018Z,10.70
2023-04-10T04:29:22.329Z,10.27
2023-04-10T04:31:49.440Z,10.63
2023-04-10T04:34:16.568Z,11.10
2023-04-10T04:36:43.662Z,9.73
2023-04-10T04:39:10.844Z,10.73
2023-04-10T04:41:37.854Z,11.93
2023-04-10T04:44:06.514Z,11.43
2023-04-10T04:46:33.583Z,10.60
2023-04-10T04:49:01.029Z,11.63
2023-04-10T04:51:28.168Z,10.70
2023-04-10T04:53:55.563Z,11.23
2023-04-10T04:56:22.797Z,10.90
2023-04-10T04:58:49.862Z,11.33
2023-04-10T05:01:16.864Z,10.20
2023-04-10T05:03:44.044Z,10.57
2023-04-10T05:06:11.195Z,10.83
2023-04-10T05:08:38.634Z,12.17
2023-04-10T05:11:06.378Z,10.60
2023-04-10T05:13:33.412Z,15.17
2023-04-10T05:16:00.634Z,11.80
2023-04-10T05:18:28.865Z,11.57
2023-04-10T05:20:56.209Z,10.70
2023-04-10T05:23:23.364Z,13.10
2023-04-10T05:25:50.781Z,12.10
2023-04-10T05:28:18.213Z,10.43
2023-04-10T05:30:45.509Z,11.30
2023-04-10T05:33:12.547Z,9.23
2023-04-10T05:35:39.946Z,10.23
2023-04-10T05:38:07.167Z,10.20
2023-04-10T05:40:34.233Z,11.10
2023-04-10T05:43:01.390Z,11.27
2023-04-10T05:45:28.937Z,10.20
2023-04-10T05:47:56.138Z,9.83
2023-04-10T05:50:23.334Z,9.73
2023-04-10T05:52:50.544Z,10.67
2023-04-10T05:55:17.775Z,10.13
2023-04-10T05:57:44.769Z,9.23
2023-04-10T06:00:12.687Z,10.27
2023-04-10T06:02:39.969Z,9.80
2023-04-10T06:05:07.931Z,9.07
2023-04-10T06:07:37.930Z,9.43
2023-04-10T06:10:05.895Z,9.57
2023-04-10T06:12:32.960Z,9.37
2023-04-10T06:15:00.058Z,9.70
2023-04-10T06:17:28.327Z,9.27
2023-04-10T06:19:56.835Z,8.95
2023-04-10T06:22:24.110Z,11.35
2023-04-10T06:24:51.293Z,8.25
2023-04-10T06:27:18.366Z,10.07
2023-04-10T06:29:45.641Z,8.63
2023-04-10T06:32:12.784Z,10.70
2023-04-10T06:34:39.754Z,8.90
2023-04-10T06:37:06.799Z,9.18
2023-04-10T06:39:33.828Z,9.18
2023-04-10T06:42:01.353Z,9.18
2023-04-10T06:44:28.587Z,9.18
2023-04-10T06:46:55.853Z,7.88
2023-04-10T06:49:24.293Z,8.95
2023-04-10T06:51:51.492Z,9.27
2023-04-10T06:54:18.721Z,9.40
2023-04-10T06:56:45.853Z,9.20
2023-04-10T06:59:12.898Z,7.68
2023-04-10T07:01:39.945Z,7.63
2023-04-10T07:04:07.179Z,8.82
2023-04-10T07:06:34.639Z,7.50
2023-04-10T07:09:01.683Z,12.68
2023-04-10T07:11:28.720Z,7.95
2023-04-10T07:13:58.538Z,7.70
2023-04-10T07:16:26.104Z,6.45
2023-04-10T07:18:53.416Z,8.25
2023-04-10T07:21:21.464Z,11.10
2023-04-10T07:23:48.879Z,8.20
2023-04-10T07:26:16.510Z,6.78
2023-04-10T07:28:43.618Z,7.75
2023-04-10T07:31:11.985Z,7.82
2023-04-10T07:33:39.725Z,9.18
2023-04-10T07:36:07.580Z,8.40
2023-04-10T07:38:34.947Z,8.63
2023-04-10T07:41:02.115Z,8.93
2023-04-10T07:43:29.777Z,7.38
2023-04-10T07:45:57.585Z,8.30
2023-04-10T07:48:27.086Z,8.65
2023-04-10T07:51:05.994Z,7.82
2023-04-10T07:53:33.487Z,6.72
2023-04-10T07:56:00.485Z,5.85
2023-04-10T07:58:27.935Z,8.38
2023-04-10T08:00:54.961Z,6.65
2023-04-10T08:03:23.098Z,10.32
2023-04-10T08:05:50.762Z,7.53
2023-04-10T08:08:17.790Z,9.10
2023-04-10T08:10:44.888Z,6.82
2023-04-10T08:13:12.684Z,9.25
2023-04-10T08:15:40.044Z,7.47
2023-04-10T08:18:07.079Z,6.57
2023-04-10T08:20:37.473Z,5.57
2023-04-10T08:23:17.018Z,6.60
2023-04-10T08:25:47.327Z,7.70
2023-04-10T08:28:14.435Z,6.95
2023-04-10T08:30:41.707Z,6.90
2023-04-10T08:33:08.940Z,7.50
2023-04-10T08:35:36.151Z,6.00
2023-04-10T08:38:13.245Z,5.53
2023-04-10T08:40:41.874Z,5.47
2023-04-10T08:43:08.956Z,7.43
2023-04-10T08:45:36.059Z,5.38
2023-04-10T08:48:08.389Z,7.60
2023-04-10T08:50:38.563Z,5.78
2023-04-10T08:53:13.253Z,5.10
2023-04-10T08:55:46.171Z,6.72
2023-04-10T08:58:13.949Z,5.28
2023-04-10T09:00:41.215Z,5.85
2023-04-10T09:03:14.262Z,5.18
2023-04-10T09:05:41.561Z,5.07
2023-04-10T09:08:13.839Z,5.22
2023-04-10T09:10:41.447Z,6.22
2023-04-10T09:13:08.444Z,5.90
2023-04-10T09:15:58.746Z,5.10
2023-04-10T09:18:52.075Z,6.15
2023-04-10T09:21:22.046Z,5.80
2023-04-10T09:24:01.244Z,4.55
2023-04-10T09:26:31.352Z,4.97
2023-04-10T09:29:06.417Z,5.65
2023-04-10T09:31:36.752Z,4.72
2023-04-10T09:34:18.716Z,4.50
2023-04-10T09:36:56.067Z,4.90
2023-04-10T09:39:44.287Z,5.10
2023-04-10T09:42:15.167Z,4.90
2023-04-10T09:44:43.160Z,4.65
2023-04-10T09:47:18.180Z,4.28
2023-04-10T09:49:52.429Z,4.40
2023-04-10T09:52:26.755Z,7.65
2023-04-10T09:54:59.439Z,5.13
2023-04-10T09:57:33.695Z,4.35
2023-04-10T10:00:05.228Z,4.10
2023-04-10T10:02:39.167Z,4.70
2023-04-10T10:05:08.683Z,5.95
2023-04-10T10:07:36.986Z,3.28
2023-04-10T10:10:06.432Z,3.58
2023-04-10T10:12:57.341Z,4.75
2023-04-10T10:15:39.130Z,5.65
2023-04-10T10:18:44.887Z,5.13
2023-04-10T10:21:14.509Z,4.05
2023-04-10T10:23:44.326Z,5.28
2023-04-10T10:26:12.522Z,3.53
2023-04-10T10:28:42.343Z,3.92
2023-04-10T10:31:10.382Z,3.55
2023-04-10T10:33:39.566Z,4.22
2023-04-10T10:36:08.825Z,3.58
2023-04-10T10:38:42.022Z,4.78
2023-04-10T10:41:48.156Z,3.90
2023-04-10T10:45:03.017Z,4.35
2023-04-10T10:47:34.698Z,3.47
2023-04-10T10:50:03.904Z,6.75
2023-04-10T10:52:39.804Z,9.00
2023-04-10T10:55:25.243Z,4.22
2023-04-10T10:58:20.368Z,4.05
2023-04-10T11:00:50.424Z,2.95
2023-04-10T11:03:17.621Z,3.28
2023-04-10T11:06:21.753Z,3.65
2023-04-10T11:08:53.367Z,2.70
2023-04-10T11:11:27.412Z,4.50
2023-04-10T11:13:57.238Z,4.78
2023-04-10T11:16:46.614Z,3.33
2023-04-10T11:19:15.929Z,3.60
2023-04-10T11:22:02.613Z,2.85
2023-04-10T11:24:50.510Z,2.78
2023-04-10T11:27:48.608Z,2.92
2023-04-10T11:30:34.100Z,2.80
2023-04-10T11:33:03.995Z,2.90
2023-04-10T11:35:32.285Z,4.18
2023-04-10T11:38:17.829Z,2.88
2023-04-10T11:40:56.496Z,2.78
2023-04-10T11:43:23.696Z,3.95
2023-04-10T11:45:51.067Z,4.93
2023-04-10T11:48:18.257Z,2.50
2023-04-10T11:50:45.556Z,2.80
2023-04-10T11:53:22.479Z,2.70
2023-04-10T11:55:49.990Z,5.28
2023-04-10T11:58:28.775Z,2.30
2023-04-10T12:01:05.470Z,2.83
2023-04-10T12:03:42.698Z,3.35
2023-04-10T12:06:13.373Z,2.70
2023-04-10T12:08:46.221Z,2.22
2023-04-10T12:11:14.498Z,4.28
2023-04-10T12:13:41.655Z,2.42
2023-04-10T12:16:10.528Z,1.98
2023-04-10T12:18:38.372Z,5.40
2023-04-10T12:21:08.408Z,3.78
2023-04-10T12:23:41.663Z,2.95
2023-04-10T12:26:16.293Z,5.43
2023-04-10T12:28:55.411Z,2.40
2023-04-10T12:31:41.011Z,2.80
2023-04-10T12:34:11.301Z,3.42
2023-04-10T12:36:38.727Z,3.13
2023-04-10T12:39:21.677Z,3.45
2023-04-10T12:41:48.929Z,2.33
2023-04-10T12:44:16.228Z,2.90
2023-04-10T12:46:44.395Z,3.28
2023-04-10T12:49:17.103Z,2.72
2023-04-10T12:51:53.544Z,2.75
2023-04-10T12:54:31.943Z,3.45
2023-04-10T12:56:59.993Z,2.00
2023-04-10T12:59:28.114Z,3.03
2023-04-10T13:01:55.895Z,2.03
2023-04-10T13:04:24.001Z,2.38
2023-04-10T13:06:52.959Z,3.53
2023-04-10T13:09:20.378Z,2.00
2023-04-10T13:11:48.135Z,2.00
2023-04-10T13:14:17.072Z,1.92
2023-04-10T13:16:44.284Z,2.35
2023-04-10T13:19:11.400Z,3.58
2023-04-10T13:21:38.476Z,2.10
2023-04-10T13:24:05.971Z,2.45
2023-04-10T13:26:33.316Z,1.95
2023-04-10T13:29:00.349Z,2.20
2023-04-10T13:31:27.390Z,3.20
2023-04-10T13:33:54.645Z,2.65
2023-04-10T13:36:22.061Z,4.13
2023-04-10T13:38:49.156Z,2.50
2023-04-10T13:41:16.408Z,4.53
2023-04-10T13:43:43.419Z,3.53
2023-04-10T13:46:10.481Z,3.78
2023-04-10T13:48:41.435Z,2.97
2023-04-10T13:51:08.886Z,2.47
2023-04-10T13:53:36.243Z,2.38
2023-04-10T13:56:03.358Z,2.20
2023-04-10T13:58:32.207Z,4.95
2023-04-10T14:00:59.715Z,1.83
2023-04-10T14:03:27.820Z,1.95
2023-04-10T14:05:55.164Z,2.63
2023-04-10T14:08:22.280Z,1.63
2023-04-10T14:10:52.889Z,4.70
2023-04-10T14:13:20.554Z,1.75
2023-04-10T14:15:48.104Z,2.40
2023-04-10T14:18:18.627Z,5.32
2023-04-10T14:20:45.896Z,3.17
2023-04-10T14:23:18.629Z,2.55
2023-04-10T14:25:46.946Z,2.45
2023-04-10T14:28:17.955Z,1.65
2023-04-10T14:30:46.605Z,2.30
2023-04-10T14:33:13.867Z,5.15
2023-04-10T14:35:41.525Z,2.25
2023-04-10T14:38:08.779Z,2.17
2023-04-10T14:40:37.041Z,2.00
2023-04-10T14:43:04.579Z,3.90
2023-04-10T14:45:32.626Z,3.28
2023-04-10T14:48:00.174Z,2.20
2023-04-10T14:50:27.309Z,1.70
2023-04-10T14:52:54.458Z,2.53
2023-04-10T14:55:21.526Z,2.67
2023-04-10T14:57:48.597Z,2.80
2023-04-10T15:00:16.221Z,2.65
2023-04-10T15:02:43.426Z,2.70
2023-04-10T15:05:10.738Z,2.28
2023-04-10T15:07:37.843Z,2.28
2023-04-10T15:10:05.591Z,2.42
2023-04-10T15:12:32.726Z,1.85
2023-04-10T15:14:59.708Z,2.42
2023-04-10T15:17:26.900Z,1.98
2023-04-10T15:19:54.263Z,2.33
2023-04-10T15:22:21.459Z,5.53
2023-04-10T15:24:50.833Z,7.05
2023-04-10T15:27:21.446Z,3.00
2023-04-10T15:29:49.021Z,4.28
2023-04-10T15:32:16.086Z,8.90
2023-04-10T15:34:44.686Z,7.40
2023-04-10T15:37:11.891Z,7.95
2023-04-10T15:39:39.076Z,3.03
2023-04-10T15:42:07.508Z,5.60
2023-04-10T15:44:34.587Z,1.77
2023-04-10T15:47:01.658Z,2.15
2023-04-10T15:49:37.040Z,2.17
2023-04-10T15:52:08.612Z,1.88
2023-04-10T15:54:36.208Z,2.17
2023-04-10T15:57:04.202Z,1.90
2023-04-10T15:59:33.679Z,3.63
2023-04-10T16:02:00.912Z,3.53
2023-04-10T16:04:29.067Z,2.38
2023-04-10T16:06:56.741Z,5.03
2023-04-10T16:09:26.809Z,2.22
2023-04-10T16:11:56.089Z,99.03
2023-04-10T16:14:23.407Z,66.10
2023-04-10T16:16:51.366Z,157.00
2023-04-10T16:19:18.692Z,115.25
2023-04-10T16:21:45.921Z,29.92
2023-04-10T16:24:13.109Z,12.85
2023-04-10T16:26:40.282Z,8.38
2023-04-10T16:29:07.982Z,8.00
2023-04-10T16:31:35.108Z,8.63
2023-04-10T16:34:02.308Z,4.43
2023-04-10T16:36:29.412Z,2.80
2023-04-10T16:38:56.796Z,3.38
2023-04-10T16:41:24.668Z,4.68
2023-04-10T16:43:51.678Z,2.55
2023-04-10T16:46:19.052Z,5.22
2023-04-10T16:48:46.267Z,2.58
2023-04-10T16:51:17.647Z,3.70
2023-04-10T16:53:45.118Z,2.53
2023-04-10T16:56:12.691Z,4.00
2023-04-10T16:58:42.190Z,4.03
2023-04-10T17:01:21.997Z,5.05
2023-04-10T17:03:49.397Z,2.63
2023-04-10T17:06:16.866Z,3.20
2023-04-10T17:08:44.893Z,4.75
2023-04-10T17:11:16.250Z,3.05
2023-04-10T17:13:43.679Z,3.55
2023-04-10T17:16:10.798Z,4.28
2023-04-10T17:18:37.873Z,5.10
2023-04-10T17:21:05.530Z,3.97
2023-04-10T17:23:32.607Z,4.72
2023-04-10T17:25:59.848Z,4.55
2023-04-10T17:28:27.099Z,7.18
2023-04-10T17:30:54.109Z,5.53
2023-04-10T17:33:23.626Z,4.53
2023-04-10T17:35:52.018Z,4.57
2023-04-10T17:38:19.318Z,3.45
2023-04-10T17:40:46.384Z,5.50
2023-04-10T17:43:13.368Z,4.85
2023-04-10T17:45:40.607Z,6.38
2023-04-10T17:48:07.884Z,5.07
2023-04-10T17:50:35.829Z,4.35
2023-04-10T17:53:02.958Z,6.95
2023-04-10T17:55:30.224Z,6.03
2023-04-10T17:58:00.465Z,5.25
2023-04-10T18:00:27.639Z,4.35
2023-04-10T18:03:00.010Z,7.00
2023-04-10T18:05:29.280Z,4.65
2023-04-10T18:07:56.937Z,4.38
2023-04-10T18:10:24.238Z,3.55
2023-04-10T18:12:53.171Z,3.92
2023-04-10T18:15:21.429Z,3.55
2023-04-10T18:17:48.532Z,4.43
2023-04-10T18:20:15.900Z,2.25
2023-04-10T18:22:42.954Z,3.63
2023-04-10T18:25:10.342Z,4.07
2023-04-10T18:27:40.908Z,2.90
2023-04-10T18:30:10.246Z,2.28
2023-04-10T18:32:38.280Z,2.42
2023-04-10T18:35:06.229Z,39.13
2023-04-10T18:37:33.573Z,5.95
2023-04-10T18:40:06.431Z,4.57
2023-04-10T18:42:40.801Z,3.42
2023-04-10T18:45:08.721Z,2.67
2023-04-10T18:47:35.940Z,1.85
2023-04-10T18:50:03.077Z,2.08
2023-04-10T18:52:30.110Z,3.22
2023-04-10T18:54:57.340Z,3.22
2023-04-10T18:57:24.361Z,2.22
2023-04-10T18:59:51.406Z,3.30
2023-04-10T19:02:18.831Z,2.70
2023-04-10T19:04:46.234Z,2.75
2023-04-10T19:07:13.788Z,2.28
2023-04-10T19:09:41.035Z,3.70
2023-04-10T19:12:08.166Z,3.08
2023-04-10T19:14:37.417Z,3.25
2023-04-10T19:17:06.602Z,3.00
2023-04-10T19:19:34.077Z,3.22
2023-04-10T19:22:01.341Z,3.33
2023-04-10T19:24:29.146Z,2.10
2023-04-10T19:26:57.392Z,1.83
2023-04-10T19:29:24.854Z,2.50
2023-04-10T19:31:52.074Z,5.63
2023-04-10T19:34:19.159Z,4.95
2023-04-10T19:36:46.776Z,3.45
2023-04-10T19:39:13.918Z,2.95
2023-04-10T19:41:42.392Z,3.17
2023-04-10T19:44:09.702Z,3.38
2023-04-10T19:46:36.997Z,2.42
2023-04-10T19:49:04.193Z,2.97
2023-04-10T19:51:32.355Z,2.25
2023-04-10T19:53:59.538Z,3.13
2023-04-10T19:56:27.841Z,4.00
2023-04-10T19:58:55.291Z,2.03
2023-04-10T20:01:24.390Z,4.20
2023-04-10T20:03:51.710Z,1.98
2023-04-10T20:06:18.887Z,2.08
2023-04-10T20:08:45.986Z,2.22
2023-04-10T20:11:13.197Z,3.83
2023-04-10T20:13:41.433Z,2.42
2023-04-10T20:16:09.342Z,2.53
2023-04-10T20:18:36.863Z,4.40
2023-04-10T20:21:04.785Z,3.13
2023-04-10T20:23:32.069Z,3.03
2023-04-10T20:25:59.416Z,4.40
2023-04-10T20:28:26.577Z,5.25
2023-04-10T20:30:53.710Z,3.97
2023-04-10T20:33:20.734Z,3.97
2023-04-10T20:35:47.943Z,5.03
2023-04-10T20:38:15.037Z,7.05
2023-04-10T20:40:42.142Z,5.78
2023-04-10T20:43:11.055Z,5.07
2023-04-10T20:45:39.528Z,5.47
2023-04-10T20:48:08.307Z,6.72
2023-04-10T20:50:36.999Z,7.90
2023-04-10T20:53:04.461Z,5.97
2023-04-10T20:55:31.518Z,6.82
2023-04-10T20:57:58.841Z,3.17
2023-04-10T21:00:26.067Z,5.45
2023-04-10T21:02:53.407Z,7.18
2023-04-10T21:05:20.659Z,9.43
2023-04-10T21:07:47.878Z,4.22
2023-04-10T21:10:14.946Z,6.50
2023-04-10T21:12:42.166Z,6.78
2023-04-10T21:15:09.826Z,11.13
2023-04-10T21:17:37.082Z,9.50
2023-04-10T21:20:04.394Z,8.50
2023-04-10T21:22:31.495Z,9.32
2023-04-10T21:24:59.179Z,5.45
2023-04-10T21:27:27.023Z,4.65
2023-04-10T21:29:54.092Z,6.50
2023-04-10T21:32:21.231Z,9.25
2023-04-10T21:34:48.300Z,8.95
2023-04-10T21:37:15.799Z,7.30
2023-04-10T21:39:42.982Z,6.25
2023-04-10T21:42:10.107Z,5.85
2023-04-10T21:44:37.148Z,10.27
2023-04-10T21:47:04.950Z,5.63
2023-04-10T21:49:32.088Z,4.50
2023-04-10T21:51:59.361Z,5.47
2023-04-10T21:54:26.385Z,7.63
2023-04-10T21:56:53.560Z,8.80
2023-04-10T21:59:20.633Z,8.43
2023-04-10T22:01:48.090Z,7.53
2023-04-10T22:04:15.600Z,7.22
2023-04-10T22:06:42.944Z,8.38
2023-04-10T22:09:10.286Z,9.25
2023-04-10T22:11:39.197Z,6.80
2023-04-10T22:14:15.993Z,8.10
2023-04-10T22:16:44.592Z,9.45
2023-04-10T22:19:11.940Z,7.65
2023-04-10T22:21:38.977Z,9.85
2023-04-10T22:24:06.440Z,9.63
2023-04-10T22:26:35.014Z,6.45
2023-04-10T22:29:04.180Z,9.05
2023-04-10T22:31:31.468Z,6.32
2023-04-10T22:33:58.930Z,8.13
2023-04-10T22:36:33.717Z,9.32
2023-04-10T22:39:01.357Z,13.20
2023-04-10T22:41:30.047Z,7.05
2023-04-10T22:43:57.544Z,9.33
2023-04-10T22:46:25.380Z,10.60
2023-04-10T22:48:54.919Z,8.70
2023-04-10T22:51:22.197Z,8.77
2023-04-10T22:53:49.432Z,10.00
2023-04-10T22:56:16.562Z,8.70
2023-04-10T22:58:43.960Z,8.65
2023-04-10T23:01:12.169Z,7.28
2023-04-10T23:03:39.490Z,10.63
2023-04-10T23:06:07.103Z,9.82
2023-04-10T23:08:34.537Z,8.53
2023-04-10T23:11:01.615Z,13.23
2023-04-10T23:13:28.789Z,10.40
2023-04-10T23:15:56.942Z,9.73
2023-04-10T23:18:24.461Z,14.00
2023-04-10T23:20:51.543Z,9.95
2023-04-10T23:23:18.727Z,9.80
2023-04-10T23:25:46.046Z,10.83
2023-04-10T23:28:13.212Z,12.35
2023-04-10T23:30:42.140Z,20.05
2023-04-10T23:33:09.506Z,12.25
2023-04-10T23:35:37.064Z,13.97
2023-04-10T23:38:04.064Z,13.13
2023-04-10T23:40:31.440Z,17.20
2023-04-10T23:42:58.529Z,15.07
2023-04-10T23:45:25.645Z,15.43
2023-04-10T23:47:52.959Z,15.90
2023-04-10T23:50:20.160Z,15.73
2023-04-10T23:52:51.711Z,18.00
2023-04-10T23:55:19.260Z,18.25
2023-04-10T23:57:46.338Z,18.20
